sensor_id;sensor_type;location;lat;lon;timestamp;pressure;altitude;pressure_sealevel;temperature;humidity
32875;BME280;40468;42.128;24.750;2023-11-21T00:00:50;99518.44;;;9.73;50.78
32875;BME280;40468;42.128;24.750;2023-11-21T00:02:21;99467.06;;;9.40;50.92
32875;BME280;40468;42.128;24.750;2023-11-21T00:03:53;99519.44;;;9.70;51.22
32875;BME280;40468;42.128;24.750;2023-11-21T00:05:25;99493.41;;;9.51;51.19
32875;BME280;40468;42.128;24.750;2023-11-21T00:06:59;99524.69;;;9.69;51.18
32875;BME280;40468;42.128;24.750;2023-11-21T00:08:31;99528.13;;;9.69;50.92
32875;BME280;40468;42.128;24.750;2023-11-21T00:10:03;99524.63;;;9.70;51.20
32875;BME280;40468;42.128;24.750;2023-11-21T00:11:35;99528.13;;;9.69;50.98
32875;BME280;40468;42.128;24.750;2023-11-21T00:13:08;99528.13;;;9.69;50.98
32875;BME280;40468;42.128;24.750;2023-11-21T00:14:38;99529.97;;;9.67;51.31
32875;BME280;40468;42.128;24.750;2023-11-21T00:16:10;99528.28;;;9.66;51.42
32875;BME280;40468;42.128;24.750;2023-11-21T00:17:41;99526.66;;;9.64;51.44
32875;BME280;40468;42.128;24.750;2023-11-21T00:19:12;99527.63;;;9.61;51.48
32875;BME280;40468;42.128;24.750;2023-11-21T00:20:43;99525.19;;;9.58;51.61
32875;BME280;40468;42.128;24.750;2023-11-21T00:22:15;99528.84;;;9.54;51.72
32875;BME280;40468;42.128;24.750;2023-11-21T00:23:47;99521.13;;;9.52;51.83
32875;BME280;40468;42.128;24.750;2023-11-21T00:25:19;99520.34;;;9.50;51.99
32875;BME280;40468;42.128;24.750;2023-11-21T00:26:50;99525.53;;;9.50;51.91
32875;BME280;40468;42.128;24.750;2023-11-21T00:28:21;99514.34;;;9.48;52.08
32875;BME280;40468;42.128;24.750;2023-11-21T00:29:52;99516.97;;;9.48;52.13
32875;BME280;40468;42.128;24.750;2023-11-21T00:31:24;99523.91;;;9.48;51.73
32875;BME280;40468;42.128;24.750;2023-11-21T00:32:55;99517.03;;;9.47;52.07
32875;BME280;40468;42.128;24.750;2023-11-21T00:34:27;99519.66;;;9.47;51.97
32875;BME280;40468;42.128;24.750;2023-11-21T00:35:57;99510.97;;;9.46;51.94
32875;BME280;40468;42.128;24.750;2023-11-21T00:37:29;99511.06;;;9.45;51.93
32875;BME280;40468;42.128;24.750;2023-11-21T00:39:03;99511.06;;;9.45;52.16
32875;BME280;40468;42.128;24.750;2023-11-21T00:40:36;99511.13;;;9.43;52.01
32875;BME280;40468;42.128;24.750;2023-11-21T00:42:08;99513.09;;;9.38;52.27
32875;BME280;40468;42.128;24.750;2023-11-21T00:43:40;99511.53;;;9.34;52.53
32875;BME280;40468;42.128;24.750;2023-11-21T00:45:11;99509.91;;;9.31;52.53
32875;BME280;40468;42.128;24.750;2023-11-21T00:46:42;99516.03;;;9.30;52.59
32875;BME280;40468;42.128;24.750;2023-11-21T00:48:13;99517.78;;;9.30;52.56
32875;BME280;40468;42.128;24.750;2023-11-21T00:49:45;99515.25;;;9.28;52.66
32875;BME280;40468;42.128;24.750;2023-11-21T00:51:15;99519.59;;;9.28;52.60
32875;BME280;40468;42.128;24.750;2023-11-21T00:52:47;99524.81;;;9.28;52.71
32875;BME280;40468;42.128;24.750;2023-11-21T00:54:19;99512.88;;;9.24;52.78
32875;BME280;40468;42.128;24.750;2023-11-21T00:55:51;99522.59;;;9.19;53.13
32875;BME280;40468;42.128;24.750;2023-11-21T00:57:22;99521.97;;;9.14;52.96
32875;BME280;40468;42.128;24.750;2023-11-21T00:58:54;99523.06;;;9.08;53.39
32875;BME280;40468;42.128;24.750;2023-11-21T01:00:24;99532.75;;;9.04;53.66
32875;BME280;40468;42.128;24.750;2023-11-21T01:01:56;99524.19;;;9.02;53.54
32875;BME280;40468;42.128;24.750;2023-11-21T01:03:27;99525.09;;;9.01;53.47
32875;BME280;40468;42.128;24.750;2023-11-21T01:04:58;99522.63;;;8.98;53.58
32875;BME280;40468;42.128;24.750;2023-11-21T01:06:29;99521.00;;;8.96;53.96
32875;BME280;40468;42.128;24.750;2023-11-21T01:08:00;99511.84;;;8.87;54.02
32875;BME280;40468;42.128;24.750;2023-11-21T01:09:32;99510.25;;;8.84;54.29
32875;BME280;40468;42.128;24.750;2023-11-21T01:11:04;99519.06;;;8.80;54.41
32875;BME280;40468;42.128;24.750;2023-11-21T01:12:37;99470.34;;;8.46;54.31
32875;BME280;40468;42.128;24.750;2023-11-21T01:14:09;99520.88;;;8.78;54.39
32875;BME280;40468;42.128;24.750;2023-11-21T01:15:40;99529.66;;;8.76;54.29
32875;BME280;40468;42.128;24.750;2023-11-21T01:17:12;99526.28;;;8.74;54.27
32875;BME280;40468;42.128;24.750;2023-11-21T01:18:42;99527.31;;;8.70;54.39
32875;BME280;40468;42.128;24.750;2023-11-21T01:20:14;99526.59;;;8.66;54.54
32875;BME280;40468;42.128;24.750;2023-11-21T01:21:45;99522.44;;;8.62;54.50
32875;BME280;40468;42.128;24.750;2023-11-21T01:23:17;99526.09;;;8.58;54.26
32875;BME280;40468;42.128;24.750;2023-11-21T01:24:49;99518.41;;;8.55;54.55
32875;BME280;40468;42.128;24.750;2023-11-21T01:26:20;99522.94;;;8.50;54.66
32875;BME280;40468;42.128;24.750;2023-11-21T01:27:51;99521.38;;;8.46;54.39
32875;BME280;40468;42.128;24.750;2023-11-21T01:29:22;99515.53;;;8.40;54.91
32875;BME280;40468;42.128;24.750;2023-11-21T01:30:53;99522.56;;;8.37;54.95
32875;BME280;40468;42.128;24.750;2023-11-21T01:32:26;99527.03;;;8.33;55.10
32875;BME280;40468;42.128;24.750;2023-11-21T01:33:57;99529.69;;;8.32;54.89
32875;BME280;40468;42.128;24.750;2023-11-21T01:35:28;99529.75;;;8.30;55.02
32875;BME280;40468;42.128;24.750;2023-11-21T01:37:00;99526.31;;;8.30;54.86
32875;BME280;40468;42.128;24.750;2023-11-21T01:38:32;99521.19;;;8.28;54.77
32875;BME280;40468;42.128;24.750;2023-11-21T01:40:05;99520.34;;;8.28;55.01
32875;BME280;40468;42.128;24.750;2023-11-21T01:41:38;99525.59;;;8.26;55.03
32875;BME280;40468;42.128;24.750;2023-11-21T01:43:10;99513.50;;;8.25;54.83
32875;BME280;40468;42.128;24.750;2023-11-21T01:44:40;99517.03;;;8.24;54.85
32875;BME280;40468;42.128;24.750;2023-11-21T01:46:12;99517.94;;;8.23;54.73
32875;BME280;40468;42.128;24.750;2023-11-21T01:47:43;99522.34;;;8.21;55.10
32875;BME280;40468;42.128;24.750;2023-11-21T01:49:15;99516.34;;;8.19;55.08
32875;BME280;40468;42.128;24.750;2023-11-21T01:50:47;99522.66;;;8.13;55.79
32875;BME280;40468;42.128;24.750;2023-11-21T01:52:19;99517.56;;;8.10;55.87
32875;BME280;40468;42.128;24.750;2023-11-21T01:53:50;99521.06;;;8.09;55.85
32875;BME280;40468;42.128;24.750;2023-11-21T01:55:23;99520.22;;;8.09;55.70
32875;BME280;40468;42.128;24.750;2023-11-21T01:56:53;99521.16;;;8.08;55.88
32875;BME280;40468;42.128;24.750;2023-11-21T01:58:25;99519.50;;;8.05;55.99
32875;BME280;40468;42.128;24.750;2023-11-21T01:59:56;99512.69;;;8.03;56.04
32875;BME280;40468;42.128;24.750;2023-11-21T02:01:30;99512.81;;;8.00;56.02
32875;BME280;40468;42.128;24.750;2023-11-21T02:03:01;99518.13;;;7.96;56.09
32875;BME280;40468;42.128;24.750;2023-11-21T02:04:33;99515.69;;;7.92;56.36
32875;BME280;40468;42.128;24.750;2023-11-21T02:06:03;99517.72;;;7.84;56.84
32875;BME280;40468;42.128;24.750;2023-11-21T02:07:35;99513.66;;;7.78;57.18
32875;BME280;40468;42.128;24.750;2023-11-21T02:09:06;99513.69;;;7.77;57.05
32875;BME280;40468;42.128;24.750;2023-11-21T02:10:40;99508.59;;;7.75;57.13
32875;BME280;40468;42.128;24.750;2023-11-21T02:12:11;99506.03;;;7.73;57.26
32875;BME280;40468;42.128;24.750;2023-11-21T02:13:42;99515.56;;;7.73;56.91
32875;BME280;40468;42.128;24.750;2023-11-21T02:15:13;99511.34;;;7.70;57.10
32875;BME280;40468;42.128;24.750;2023-11-21T02:16:50;99517.59;;;7.65;57.49
32875;BME280;40468;42.128;24.750;2023-11-21T02:18:20;99510.09;;;7.57;57.70
32875;BME280;40468;42.128;24.750;2023-11-21T02:19:52;99510.28;;;7.52;57.85
32875;BME280;40468;42.128;24.750;2023-11-21T02:21:23;99510.34;;;7.51;57.80
32875;BME280;40468;42.128;24.750;2023-11-21T02:22:57;99512.09;;;7.50;57.90
32875;BME280;40468;42.128;24.750;2023-11-21T02:24:28;99514.66;;;7.50;58.04
32875;BME280;40468;42.128;24.750;2023-11-21T02:26:00;99515.59;;;7.49;57.80
32875;BME280;40468;42.128;24.750;2023-11-21T02:27:34;99521.72;;;7.47;57.87
32875;BME280;40468;42.128;24.750;2023-11-21T02:29:06;99512.44;;;7.41;58.11
32875;BME280;40468;42.128;24.750;2023-11-21T02:30:41;99518.84;;;7.31;58.71
32875;BME280;40468;42.128;24.750;2023-11-21T02:32:12;99520.97;;;7.20;58.80
32875;BME280;40468;42.128;24.750;2023-11-21T02:33:43;99527.38;;;7.10;59.13
32875;BME280;40468;42.128;24.750;2023-11-21T02:35:14;99518.16;;;7.02;59.23
32875;BME280;40468;42.128;24.750;2023-11-21T02:36:46;99522.53;;;7.00;59.15
32875;BME280;40468;42.128;24.750;2023-11-21T02:38:19;99524.25;;;7.00;58.99
32875;BME280;40468;42.128;24.750;2023-11-21T02:39:49;99519.06;;;7.01;58.96
32875;BME280;40468;42.128;24.750;2023-11-21T02:41:21;99513.00;;;7.01;58.72
32875;BME280;40468;42.128;24.750;2023-11-21T02:42:53;99511.31;;;7.00;58.81
32875;BME280;40468;42.128;24.750;2023-11-21T02:44:23;99513.97;;;6.98;58.72
32875;BME280;40468;42.128;24.750;2023-11-21T02:45:55;99508.84;;;6.97;58.67
32875;BME280;40468;42.128;24.750;2023-11-21T02:47:25;99513.28;;;6.93;58.75
32875;BME280;40468;42.128;24.750;2023-11-21T02:48:57;99515.91;;;6.92;59.14
32875;BME280;40468;42.128;24.750;2023-11-21T02:50:28;99512.56;;;6.90;58.99
32875;BME280;40468;42.128;24.750;2023-11-21T02:52:00;99517.84;;;6.87;59.06
32875;BME280;40468;42.128;24.750;2023-11-21T02:53:33;99517.84;;;6.87;58.91
32875;BME280;40468;42.128;24.750;2023-11-21T02:55:04;99520.47;;;6.85;58.80
32875;BME280;40468;42.128;24.750;2023-11-21T02:56:35;99526.47;;;6.86;58.57
32875;BME280;40468;42.128;24.750;2023-11-21T02:58:07;99526.56;;;6.84;58.65
32875;BME280;40468;42.128;24.750;2023-11-21T02:59:38;99529.97;;;6.84;58.55
32875;BME280;40468;42.128;24.750;2023-11-21T03:01:10;99531.72;;;6.84;58.64
32875;BME280;40468;42.128;24.750;2023-11-21T03:02:42;99527.44;;;6.83;58.74
32875;BME280;40468;42.128;24.750;2023-11-21T03:04:13;99528.41;;;6.80;58.65
32875;BME280;40468;42.128;24.750;2023-11-21T03:05:48;99525.84;;;6.79;58.60
32875;BME280;40468;42.128;24.750;2023-11-21T03:07:18;99529.34;;;6.78;58.40
32875;BME280;40468;42.128;24.750;2023-11-21T03:08:51;99527.59;;;6.78;58.41
32875;BME280;40468;42.128;24.750;2023-11-21T03:10:23;99531.03;;;6.79;58.54
32875;BME280;40468;42.128;24.750;2023-11-21T03:11:53;99531.88;;;6.79;58.55
32875;BME280;40468;42.128;24.750;2023-11-21T03:13:25;99531.03;;;6.79;58.50
32875;BME280;40468;42.128;24.750;2023-11-21T03:14:56;99523.25;;;6.79;58.54
32875;BME280;40468;42.128;24.750;2023-11-21T03:16:27;99525.84;;;6.79;58.60
32875;BME280;40468;42.128;24.750;2023-11-21T03:17:59;99531.88;;;6.79;58.49
32875;BME280;40468;42.128;24.750;2023-11-21T03:19:30;99530.13;;;6.80;58.47
32875;BME280;40468;42.128;24.750;2023-11-21T03:21:01;99530.09;;;6.81;58.51
32875;BME280;40468;42.128;24.750;2023-11-21T03:22:32;99524.06;;;6.81;58.57
32875;BME280;40468;42.128;24.750;2023-11-21T03:24:05;99524.06;;;6.81;58.36
32875;BME280;40468;42.128;24.750;2023-11-21T03:25:37;99524.94;;;6.80;58.41
32875;BME280;40468;42.128;24.750;2023-11-21T03:27:08;99524.09;;;6.79;58.40
32875;BME280;40468;42.128;24.750;2023-11-21T03:28:39;99527.53;;;6.80;58.56
32875;BME280;40468;42.128;24.750;2023-11-21T03:30:10;99524.94;;;6.80;58.79
32875;BME280;40468;42.128;24.750;2023-11-21T03:31:42;99527.53;;;6.80;58.79
32875;BME280;40468;42.128;24.750;2023-11-21T03:33:13;99526.69;;;6.79;58.80
32875;BME280;40468;42.128;24.750;2023-11-21T03:34:53;99531.88;;;6.79;59.00
32875;BME280;40468;42.128;24.750;2023-11-21T03:36:25;99537.03;;;6.79;58.88
32875;BME280;40468;42.128;24.750;2023-11-21T03:37:57;99532.81;;;6.77;59.16
32875;BME280;40468;42.128;24.750;2023-11-21T03:39:29;99531.13;;;6.76;59.36
32875;BME280;40468;42.128;24.750;2023-11-21T03:41:00;99528.53;;;6.76;59.17
32875;BME280;40468;42.128;24.750;2023-11-21T03:42:32;99522.56;;;6.74;59.32
32875;BME280;40468;42.128;24.750;2023-11-21T03:44:02;99530.34;;;6.74;59.22
32875;BME280;40468;42.128;24.750;2023-11-21T03:45:34;99523.41;;;6.74;59.38
32875;BME280;40468;42.128;24.750;2023-11-21T03:47:04;99524.31;;;6.73;59.30
32875;BME280;40468;42.128;24.750;2023-11-21T03:48:36;99529.50;;;6.73;59.40
32875;BME280;40468;42.128;24.750;2023-11-21T03:50:07;99528.66;;;6.73;59.47
32875;BME280;40468;42.128;24.750;2023-11-21T03:51:39;99519.16;;;6.73;59.35
32875;BME280;40468;42.128;24.750;2023-11-21T03:53:09;99522.56;;;6.74;59.55
32875;BME280;40468;42.128;24.750;2023-11-21T03:54:42;99527.75;;;6.74;59.45
32875;BME280;40468;42.128;24.750;2023-11-21T03:56:13;99531.16;;;6.74;59.59
32875;BME280;40468;42.128;24.750;2023-11-21T03:57:45;99530.34;;;6.74;59.59
32875;BME280;40468;42.128;24.750;2023-11-21T03:59:15;99535.50;;;6.74;59.57
32875;BME280;40468;42.128;24.750;2023-11-21T04:00:47;99544.13;;;6.74;59.57
32875;BME280;40468;42.128;24.750;2023-11-21T04:02:19;99543.22;;;6.75;59.60
32875;BME280;40468;42.128;24.750;2023-11-21T04:03:50;99543.22;;;6.75;59.85
32875;BME280;40468;42.128;24.750;2023-11-21T04:05:21;99542.41;;;6.75;59.94
32875;BME280;40468;42.128;24.750;2023-11-21T04:06:53;99543.28;;;6.74;59.87
32875;BME280;40468;42.128;24.750;2023-11-21T04:08:24;99544.13;;;6.74;59.73
32875;BME280;40468;42.128;24.750;2023-11-21T04:09:57;99543.22;;;6.75;59.70
32875;BME280;40468;42.128;24.750;2023-11-21T04:11:28;99532.81;;;6.77;59.74
32875;BME280;40468;42.128;24.750;2023-11-21T04:13:00;99533.69;;;6.77;59.87
32875;BME280;40468;42.128;24.750;2023-11-21T04:14:30;99539.69;;;6.78;59.73
32875;BME280;40468;42.128;24.750;2023-11-21T04:16:02;99543.97;;;6.79;59.83
32875;BME280;40468;42.128;24.750;2023-11-21T04:17:33;99540.53;;;6.78;59.88
32875;BME280;40468;42.128;24.750;2023-11-21T04:19:04;99540.53;;;6.78;59.92
32875;BME280;40468;42.128;24.750;2023-11-21T04:20:36;99546.56;;;6.79;59.88
32875;BME280;40468;42.128;24.750;2023-11-21T04:22:08;99548.31;;;6.78;60.19
32875;BME280;40468;42.128;24.750;2023-11-21T04:23:38;99542.28;;;6.78;60.04
32875;BME280;40468;42.128;24.750;2023-11-21T04:25:13;99538.91;;;6.76;60.19
32875;BME280;40468;42.128;24.750;2023-11-21T04:26:44;99537.25;;;6.73;60.25
32875;BME280;40468;42.128;24.750;2023-11-21T04:28:15;99536.44;;;6.71;60.08
32875;BME280;40468;42.128;24.750;2023-11-21T04:29:46;99496.16;;;6.39;60.08
32875;BME280;40468;42.128;24.750;2023-11-21T04:31:17;99553.72;;;6.71;60.23
32875;BME280;40468;42.128;24.750;2023-11-21T04:32:48;99551.97;;;6.71;60.08
32875;BME280;40468;42.128;24.750;2023-11-21T04:34:20;99551.09;;;6.72;60.12
32875;BME280;40468;42.128;24.750;2023-11-21T04:35:51;99552.78;;;6.73;59.95
32875;BME280;40468;42.128;24.750;2023-11-21T04:37:23;99542.50;;;6.72;60.11
32875;BME280;40468;42.128;24.750;2023-11-21T04:38:54;99544.28;;;6.70;60.08
32875;BME280;40468;42.128;24.750;2023-11-21T04:40:26;99546.06;;;6.68;60.14
32875;BME280;40468;42.128;24.750;2023-11-21T04:41:58;99556.53;;;6.65;60.31
32875;BME280;40468;42.128;24.750;2023-11-21T04:43:28;99553.16;;;6.63;60.32
32875;BME280;40468;42.128;24.750;2023-11-21T04:45:00;99554.03;;;6.61;60.53
32875;BME280;40468;42.128;24.750;2023-11-21T04:46:35;99551.50;;;6.60;60.45
32875;BME280;40468;42.128;24.750;2023-11-21T04:48:06;99551.50;;;6.60;60.63
32875;BME280;40468;42.128;24.750;2023-11-21T04:49:39;99554.03;;;6.61;60.65
32875;BME280;40468;42.128;24.750;2023-11-21T04:51:10;99550.56;;;6.63;60.50
32875;BME280;40468;42.128;24.750;2023-11-21T04:52:43;99558.34;;;6.63;60.93
32875;BME280;40468;42.128;24.750;2023-11-21T04:54:14;99548.84;;;6.61;60.85
32875;BME280;40468;42.128;24.750;2023-11-21T04:55:46;99563.53;;;6.61;61.05
32875;BME280;40468;42.128;24.750;2023-11-21T04:57:18;99562.69;;;6.60;61.34
32875;BME280;40468;42.128;24.750;2023-11-21T04:58:49;99557.53;;;6.60;61.25
32875;BME280;40468;42.128;24.750;2023-11-21T05:00:21;99555.78;;;6.61;61.21
32875;BME280;40468;42.128;24.750;2023-11-21T05:01:51;99548.81;;;6.63;61.27
32875;BME280;40468;42.128;24.750;2023-11-21T05:03:23;99548.81;;;6.63;61.38
32875;BME280;40468;42.128;24.750;2023-11-21T05:04:56;99537.56;;;6.64;61.78
32875;BME280;40468;42.128;24.750;2023-11-21T05:06:27;99540.16;;;6.64;61.66
32875;BME280;40468;42.128;24.750;2023-11-21T05:07:58;99534.13;;;6.64;61.42
32875;BME280;40468;42.128;24.750;2023-11-21T05:09:31;99541.91;;;6.64;61.43
32875;BME280;40468;42.128;24.750;2023-11-21T05:11:04;99542.81;;;6.63;61.37
32875;BME280;40468;42.128;24.750;2023-11-21T05:12:37;99557.53;;;6.60;61.47
32875;BME280;40468;42.128;24.750;2023-11-21T05:14:08;99555.78;;;6.61;61.60
32875;BME280;40468;42.128;24.750;2023-11-21T05:15:39;99565.19;;;6.64;61.85
32875;BME280;40468;42.128;24.750;2023-11-21T05:17:11;99559.09;;;6.65;62.01
32875;BME280;40468;42.128;24.750;2023-11-21T05:18:43;99559.81;;;6.70;62.01
32875;BME280;40468;42.128;24.750;2023-11-21T05:20:14;99553.78;;;6.69;62.12
32875;BME280;40468;42.128;24.750;2023-11-21T05:21:48;99554.66;;;6.68;62.07
32875;BME280;40468;42.128;24.750;2023-11-21T05:23:18;99560.66;;;6.70;61.79
32875;BME280;40468;42.128;24.750;2023-11-21T05:24:50;99557.97;;;6.73;61.90
32875;BME280;40468;42.128;24.750;2023-11-21T05:26:22;99561.28;;;6.77;62.05
32875;BME280;40468;42.128;24.750;2023-11-21T05:27:53;99563.78;;;6.80;61.96
32875;BME280;40468;42.128;24.750;2023-11-21T05:29:25;99564.56;;;6.82;61.73
32875;BME280;40468;42.128;24.750;2023-11-21T05:30:56;99565.41;;;6.82;61.60
32875;BME280;40468;42.128;24.750;2023-11-21T05:32:28;99567.13;;;6.83;61.57
32875;BME280;40468;42.128;24.750;2023-11-21T05:33:58;99561.06;;;6.83;61.51
32875;BME280;40468;42.128;24.750;2023-11-21T05:35:30;99556.81;;;6.82;61.48
32875;BME280;40468;42.128;24.750;2023-11-21T05:37:01;99507.84;;;6.51;61.46
32875;BME280;40468;42.128;24.750;2023-11-21T05:38:32;99560.31;;;6.81;61.39
32875;BME280;40468;42.128;24.750;2023-11-21T05:40:03;99563.78;;;6.80;61.56
32875;BME280;40468;42.128;24.750;2023-11-21T05:41:37;99564.69;;;6.79;61.52
32875;BME280;40468;42.128;24.750;2023-11-21T05:43:08;99562.19;;;6.76;61.52
32875;BME280;40468;42.128;24.750;2023-11-21T05:44:41;99563.88;;;6.77;61.45
32875;BME280;40468;42.128;24.750;2023-11-21T05:46:11;99563.00;;;6.78;61.58
32875;BME280;40468;42.128;24.750;2023-11-21T05:47:43;99564.69;;;6.79;61.57
32875;BME280;40468;42.128;24.750;2023-11-21T05:49:21;99571.50;;;6.81;61.62
32875;BME280;40468;42.128;24.750;2023-11-21T05:50:52;99572.31;;;6.83;61.72
32875;BME280;40468;42.128;24.750;2023-11-21T05:52:23;99567.91;;;6.86;61.89
32875;BME280;40468;42.128;24.750;2023-11-21T05:53:54;99571.28;;;6.88;61.76
32875;BME280;40468;42.128;24.750;2023-11-21T05:55:25;99567.75;;;6.90;61.74
32875;BME280;40468;42.128;24.750;2023-11-21T05:56:58;99561.66;;;6.91;61.78
32875;BME280;40468;42.128;24.750;2023-11-21T05:58:30;99565.91;;;6.94;61.76
32875;BME280;40468;42.128;24.750;2023-11-21T06:00:02;99562.31;;;6.98;61.65
32875;BME280;40468;42.128;24.750;2023-11-21T06:01:41;99568.34;;;6.98;61.93
32875;BME280;40468;42.128;24.750;2023-11-21T06:03:13;99566.75;;;6.94;62.19
32875;BME280;40468;42.128;24.750;2023-11-21T06:04:43;99511.78;;;6.61;62.25
32875;BME280;40468;42.128;24.750;2023-11-21T06:06:15;99574.31;;;7.00;62.24
32875;BME280;40468;42.128;24.750;2023-11-21T06:07:46;99505.47;;;6.70;62.44
32875;BME280;40468;42.128;24.750;2023-11-21T06:09:17;99576.06;;;7.25;62.47
32875;BME280;40468;42.128;24.750;2023-11-21T06:10:49;99580.97;;;7.33;62.15
32875;BME280;40468;42.128;24.750;2023-11-21T06:12:21;99578.84;;;7.44;62.05
32875;BME280;40468;42.128;24.750;2023-11-21T06:13:53;99573.16;;;7.58;62.14
32875;BME280;40468;42.128;24.750;2023-11-21T06:15:23;99571.69;;;7.74;61.41
32875;BME280;40468;42.128;24.750;2023-11-21T06:16:55;99566.81;;;7.88;61.14
32875;BME280;40468;42.128;24.750;2023-11-21T06:18:28;99567.06;;;8.04;60.86
32875;BME280;40468;42.128;24.750;2023-11-21T06:19:59;99567.41;;;8.18;60.73
32875;BME280;40468;42.128;24.750;2023-11-21T06:21:31;99569.47;;;8.32;60.28
32875;BME280;40468;42.128;24.750;2023-11-21T06:23:04;99581.91;;;8.46;59.78
32875;BME280;40468;42.128;24.750;2023-11-21T06:24:35;99578.75;;;8.60;59.38
32875;BME280;40468;42.128;24.750;2023-11-21T06:26:06;99583.38;;;8.74;59.17
32875;BME280;40468;42.128;24.750;2023-11-21T06:27:41;99575.16;;;8.84;58.91
32875;BME280;40468;42.128;24.750;2023-11-21T06:29:12;99579.06;;;8.95;58.70
32875;BME280;40468;42.128;24.750;2023-11-21T06:30:44;99574.31;;;9.04;58.70
32875;BME280;40468;42.128;24.750;2023-11-21T06:32:15;99576.50;;;9.14;58.27
32875;BME280;40468;42.128;24.750;2023-11-21T06:33:47;99575.13;;;9.25;57.97
32875;BME280;40468;42.128;24.750;2023-11-21T06:35:18;99573.97;;;9.32;57.83
32875;BME280;40468;42.128;24.750;2023-11-21T06:36:50;99563.38;;;9.37;57.82
32875;BME280;40468;42.128;24.750;2023-11-21T06:38:22;99563.22;;;9.40;57.27
32875;BME280;40468;42.128;24.750;2023-11-21T06:39:52;99569.22;;;9.42;57.46
32875;BME280;40468;42.128;24.750;2023-11-21T06:41:24;99566.47;;;9.45;57.31
32875;BME280;40468;42.128;24.750;2023-11-21T06:42:58;99573.16;;;9.51;57.45
32875;BME280;40468;42.128;24.750;2023-11-21T06:44:29;99571.22;;;9.56;57.29
32875;BME280;40468;42.128;24.750;2023-11-21T06:46:00;99570.09;;;9.62;56.90
32875;BME280;40468;42.128;24.750;2023-11-21T06:47:32;99567.13;;;9.69;56.79
32875;BME280;40468;42.128;24.750;2023-11-21T06:49:03;99564.25;;;9.75;56.84
32875;BME280;40468;42.128;24.750;2023-11-21T06:50:34;99564.06;;;9.80;56.66
32875;BME280;40468;42.128;24.750;2023-11-21T06:52:06;99558.63;;;9.85;56.57
32875;BME280;40468;42.128;24.750;2023-11-21T06:53:38;99563.69;;;9.88;56.36
32875;BME280;40468;42.128;24.750;2023-11-21T06:55:10;99562.84;;;9.87;56.35
32875;BME280;40468;42.128;24.750;2023-11-21T06:56:41;99560.06;;;9.92;56.13
32875;BME280;40468;42.128;24.750;2023-11-21T06:58:14;99569.34;;;9.97;56.00
32875;BME280;40468;42.128;24.750;2023-11-21T06:59:46;99569.09;;;10.02;56.01
32875;BME280;40468;42.128;24.750;2023-11-21T07:01:16;99571.50;;;10.07;55.93
32875;BME280;40468;42.128;24.750;2023-11-21T07:02:48;99572.84;;;10.15;55.88
32875;BME280;40468;42.128;24.750;2023-11-21T07:04:19;99560.38;;;10.22;55.52
32875;BME280;40468;42.128;24.750;2023-11-21T07:05:50;99572.28;;;10.28;55.24
32875;BME280;40468;42.128;24.750;2023-11-21T07:07:21;99552.72;;;10.19;55.30
32875;BME280;40468;42.128;24.750;2023-11-21T07:08:53;99572.19;;;10.29;54.89
32875;BME280;40468;42.128;24.750;2023-11-21T07:10:24;99585.56;;;10.21;55.01
32875;BME280;40468;42.128;24.750;2023-11-21T07:11:55;99581.28;;;10.20;55.14
32875;BME280;40468;42.128;24.750;2023-11-21T07:13:28;99582.03;;;10.22;55.35
32875;BME280;40468;42.128;24.750;2023-11-21T07:15:01;99581.19;;;10.22;55.12
32875;BME280;40468;42.128;24.750;2023-11-21T07:16:33;99595.97;;;10.21;54.88
32875;BME280;40468;42.128;24.750;2023-11-21T07:18:05;99591.94;;;10.14;55.10
32875;BME280;40468;42.128;24.750;2023-11-21T07:19:38;99591.34;;;10.09;55.06
32875;BME280;40468;42.128;24.750;2023-11-21T07:21:11;99588.16;;;10.02;55.27
32875;BME280;40468;42.128;24.750;2023-11-21T07:22:42;99588.44;;;9.96;55.30
32875;BME280;40468;42.128;24.750;2023-11-21T07:24:14;99598.44;;;9.87;55.21
32875;BME280;40468;42.128;24.750;2023-11-21T07:25:44;99582.59;;;9.72;55.41
32875;BME280;40468;42.128;24.750;2023-11-21T07:27:17;99585.47;;;9.66;55.76
32875;BME280;40468;42.128;24.750;2023-11-21T07:28:49;99583.81;;;9.65;55.58
32875;BME280;40468;42.128;24.750;2023-11-21T07:30:21;99581.19;;;9.65;55.83
32875;BME280;40468;42.128;24.750;2023-11-21T07:31:52;99583.44;;;9.73;55.77
32875;BME280;40468;42.128;24.750;2023-11-21T07:33:25;99579.28;;;9.88;55.56
32875;BME280;40468;42.128;24.750;2023-11-21T07:34:56;99579.44;;;10.03;55.11
32875;BME280;40468;42.128;24.750;2023-11-21T07:36:39;99578.94;;;10.14;54.84
32875;BME280;40468;42.128;24.750;2023-11-21T07:38:10;99571.94;;;10.35;54.31
32875;BME280;40468;42.128;24.750;2023-11-21T07:39:52;99573.63;;;10.54;53.98
32875;BME280;40468;42.128;24.750;2023-11-21T07:41:27;99576.94;;;10.75;54.03
32875;BME280;40468;42.128;24.750;2023-11-21T07:43:05;99567.69;;;10.86;53.43
32875;BME280;40468;42.128;24.750;2023-11-21T07:45:00;99575.56;;;11.02;53.52
32875;BME280;40468;42.128;24.750;2023-11-21T07:46:51;99581.22;;;11.28;53.46
32875;BME280;40468;42.128;24.750;2023-11-21T07:48:34;99580.53;;;11.57;52.80
32875;BME280;40468;42.128;24.750;2023-11-21T07:50:12;99589.38;;;11.71;52.22
32875;BME280;40468;42.128;24.750;2023-11-21T07:51:48;99584.53;;;11.80;51.78
32875;BME280;40468;42.128;24.750;2023-11-21T07:53:23;99585.91;;;11.88;51.47
32875;BME280;40468;42.128;24.750;2023-11-21T07:55:05;99592.06;;;12.02;51.30
32875;BME280;40468;42.128;24.750;2023-11-21T07:57:32;99597.66;;;12.28;50.84
32875;BME280;40468;42.128;24.750;2023-11-21T07:59:11;99591.47;;;12.45;50.55
32875;BME280;40468;42.128;24.750;2023-11-21T08:00:49;99592.34;;;12.60;49.53
32875;BME280;40468;42.128;24.750;2023-11-21T08:02:20;99590.94;;;12.70;49.29
32875;BME280;40468;42.128;24.750;2023-11-21T08:04:05;99591.72;;;12.86;48.94
32875;BME280;40468;42.128;24.750;2023-11-21T08:05:43;99583.03;;;12.86;48.59
32875;BME280;40468;42.128;24.750;2023-11-21T08:07:24;99581.31;;;12.70;48.48
32875;BME280;40468;42.128;24.750;2023-11-21T08:09:10;99580.59;;;12.52;48.59